Date,TemperatureHighF,TemperatureAvgF,TemperatureLowF,DewpointHighF,DewpointAvgF,DewpointLowF,HumidityHigh,HumidityAvg,HumidityLow,PressureMaxIn,PressureMinIn,WindSpeedMaxMPH,WindSpeedAvgMPH,GustSpeedMaxMPH,PrecipitationSumIn
2013-10-1,67,63,61,62,60,59,93,90,85,30.11,30.06,0,0,0,0.00
2013-10-2,84,70,58,69,64,57,96,82,57,30.17,30.06,4,1,0,0.00
2013-10-3,78,71,65,70,66,63,96,87,69,30.12,30.06,5,1,0,0.00
2013-10-4,85,72,60,68,65,59,97,80,53,30.16,30.08,5,1,0,0.00
2013-10-5,87,73,63,69,66,61,96,79,52,30.11,29.98,5,1,0,0.00
2013-10-6,83,70,54,67,63,52,94,80,54,29.98,29.77,9,4,0,0.00
2013-10-7,65,55,46,54,48,44,95,80,48,30.18,29.89,9,2,0,0.00
2013-10-8,69,53,38,51,45,36,96,76,45,30.29,30.18,9,2,0,0.00
2013-10-9,75,57,41,56,48,39,97,76,46,30.26,30.17,5,1,0,0.00
2013-10-10,74,56,42,54,48,40,96,76,38,30.22,30.11,3,0,0,0.00
2013-10-11,78,58,44,57,50,42,96,78,45,30.14,30.04,5,1,0,0.00
2013-10-12,79,62,48,61,54,46,96,79,49,30.16,30.05,4,1,0,0.00
2013-10-13,79,63,52,62,55,-100,96,79,47,30.28,30.16,6,1,0,0.00
2013-10-14,76,64,58,62,59,57,95,84,58,30.31,30.16,4,1,0,0.00
2013-10-15,74,67,59,64,61,57,95,83,65,30.19,29.99,7,1,0,0.00
2013-10-16,66,64,61,63,61,59,95,91,84,30.01,29.96,4,0,0,0.00
2013-10-17,61,55,45,60,52,43,95,92,79,30.05,29.90,8,2,0,0.00
2013-10-18,64,51,41,53,45,40,96,82,49,30.14,30.01,4,1,0,0.00
2013-10-19,57,47,39,51,44,37,96,90,77,30.10,29.91,10,2,0,0.00
2013-10-20,62,46,34,46,36,-100,96,76,39,30.17,30.09,5,1,0,0.00
2013-10-21,69,50,35,46,39,33,96,73,32,30.14,29.99,8,2,0,0.00
2013-10-22,57,48,42,49,39,33,92,73,41,30.11,29.89,9,1,0,0.00
2013-10-23,48,44,34,46,39,31,94,83,67,30.13,29.79,14,5,0,0.00
2013-10-24,47,41,33,39,34,31,92,77,58,30.35,30.12,10,3,0,0.00
2013-10-25,48,39,29,32,29,26,92,68,43,30.54,30.35,5,2,0,0.00
2013-10-26,55,39,24,35,28,22,94,69,37,30.41,30.08,10,2,0,0.00
2013-10-27,63,44,34,46,36,-100,93,80,53,30.16,30.08,6,0,0,0.00
2013-10-28,60,52,45,56,49,-100,95,92,88,30.30,30.14,2,0,0,0.00
2013-10-29,64,57,52,58,54,50,96,90,76,30.37,30.23,3,0,0,0.00
2013-10-30,71,62,57,65,60,55,96,92,80,30.24,30.10,6,1,0,0.00
2013-10-31,73,67,62,63,58,56,94,75,65,30.10,29.54,12,5,0,0.00